Time;durP1;ratioP1;P1;durP2;ratioP2;P2;SDS_P1;SDS_P2;PMS_P1;PMS_P2;Temp;Humidity;BMP_temperature;BMP_pressure;BME280_temperature;BME280_humidity;BME280_pressure;Samples;Min_cycle;Max_cycle;Signal;HPM_P1;HPM_P2
2022/08/03 00:02:14;;;;;;;9.02;8.13;;;21.00;99.90;;;;;;5082818;28;20495;-67
2022/08/03 00:04:41;;;;;;;9.60;7.55;;;20.90;99.90;;;;;;5065885;28;20053;-67
2022/08/03 00:07:09;;;;;;;11.07;8.52;;;20.90;99.90;;;;;;5082916;28;20044;-67
2022/08/03 00:09:36;;;;;;;11.10;8.73;;;20.80;99.90;;;;;;5067238;28;20040;-67
2022/08/03 00:12:04;;;;;;;9.05;8.15;;;20.80;99.90;;;;;;5068489;28;20131;-67
2022/08/03 00:14:31;;;;;;;9.70;7.80;;;20.70;99.90;;;;;;5072086;28;20052;-66
2022/08/03 00:16:58;;;;;;;9.27;7.97;;;20.60;99.90;;;;;;5073657;28;20102;-66
2022/08/03 00:19:26;;;;;;;12.25;8.40;;;20.60;99.90;;;;;;5069918;28;20460;-66
2022/08/03 00:21:54;;;;;;;8.43;7.63;;;20.50;99.90;;;;;;5067070;28;20517;-67
2022/08/03 00:24:22;;;;;;;10.40;7.60;;;20.50;99.90;;;;;;5066302;28;20063;-67
2022/08/03 00:26:49;;;;;;;8.27;7.50;;;20.50;99.90;;;;;;5052538;28;20044;-67
2022/08/03 00:29:16;;;;;;;10.68;8.18;;;20.50;99.90;;;;;;5070505;28;20872;-67
2022/08/03 00:31:44;;;;;;;9.30;7.93;;;20.40;99.90;;;;;;5054445;28;20037;-68
2022/08/03 00:34:19;;;;;;;10.05;7.82;;;20.40;99.90;;;;;;5067160;28;20044;-66
2022/08/03 00:37:02;;;;;;;9.13;7.38;;;20.40;99.90;;;;;;5057622;28;20384;-68
2022/08/03 00:39:30;;;;;;;8.07;7.38;;;20.30;99.90;;;;;;5063193;28;20056;-66
2022/08/03 00:42:04;;;;;;;11.82;8.35;;;20.30;99.90;;;;;;5077763;28;20080;-67
2022/08/03 00:44:31;;;;;;;8.52;7.55;;;20.30;99.90;;;;;;5071198;28;20513;-67
2022/08/03 00:46:58;;;;;;;11.25;8.25;;;20.30;99.90;;;;;;5079030;28;20074;-67
2022/08/03 00:49:27;;;;;;;9.02;8.13;;;20.30;99.90;;;;;;5068090;28;20040;-66
2022/08/03 00:51:55;;;;;;;11.88;8.02;;;20.20;99.90;;;;;;5068817;28;20189;-66
2022/08/03 00:54:23;;;;;;;10.70;8.50;;;20.10;99.90;;;;;;5075322;28;20139;-66
2022/08/03 00:56:51;;;;;;;11.30;7.43;;;20.20;99.90;;;;;;5066625;28;20048;-67
2022/08/03 00:59:27;;;;;;;14.50;10.13;;;20.10;99.90;;;;;;5075883;28;20498;-66
2022/08/03 01:01:54;;;;;;;11.65;8.57;;;20.00;99.90;;;;;;5070149;28;20037;-66
2022/08/03 01:04:22;;;;;;;8.98;7.53;;;20.00;99.90;;;;;;5064878;28;20067;-67
2022/08/03 01:07:02;;;;;;;10.02;7.65;;;19.90;99.90;;;;;;5065790;28;20160;-66
2022/08/03 01:09:59;;;;;;;8.73;7.45;;;19.90;99.90;;;;;;5079312;28;20036;-66
2022/08/03 01:12:38;;;;;;;10.32;8.27;;;19.90;99.90;;;;;;5053350;28;20044;-66
2022/08/03 01:15:30;;;;;;;9.52;7.70;;;19.70;99.90;;;;;;5056399;28;20110;-66
2022/08/03 01:18:16;;;;;;;9.55;8.13;;;19.70;99.90;;;;;;5063961;28;20044;-66
2022/08/03 01:20:48;;;;;;;10.05;8.32;;;19.60;99.90;;;;;;5073453;28;20072;-67
2022/08/03 01:23:58;;;;;;;9.68;8.07;;;19.60;99.90;;;;;;5085865;28;20409;-67
2022/08/03 01:26:39;;;;;;;10.52;7.90;;;19.50;99.90;;;;;;5062910;28;20040;-67
2022/08/03 01:29:29;;;;;;;9.23;8.07;;;19.50;99.90;;;;;;5082606;28;20048;-68
2022/08/03 01:32:09;;;;;;;9.73;7.38;;;19.50;99.90;;;;;;5060034;28;20498;-68
2022/08/03 01:35:03;;;;;;;8.13;7.32;;;19.40;99.90;;;;;;5073797;28;20040;-67
2022/08/03 01:38:11;;;;;;;10.10;7.97;;;19.40;99.90;;;;;;5077776;28;20064;-67
2022/08/03 01:40:41;;;;;;;10.30;7.88;;;19.40;99.90;;;;;;5070376;28;20059;-67
2022/08/03 01:43:16;;;;;;;8.52;7.72;;;19.30;99.90;;;;;;5082132;28;20143;-67
2022/08/03 01:46:06;;;;;;;11.20;7.55;;;19.30;99.90;;;;;;5086035;28;20040;-67
2022/08/03 01:48:37;;;;;;;9.05;8.15;;;19.30;99.90;;;;;;5080806;28;20499;-68
2022/08/03 01:51:07;;;;;;;10.07;8.57;;;19.30;99.90;;;;;;5069745;28;20518;-68
2022/08/03 01:53:36;;;;;;;9.15;7.75;;;19.20;99.90;;;;;;5078876;28;20471;-68
2022/08/03 01:56:06;;;;;;;10.18;7.93;;;19.20;99.90;;;;;;5060666;28;20051;-68
2022/08/03 01:58:37;;;;;;;9.88;7.68;;;19.20;99.90;;;;;;5070190;28;20037;-67
2022/08/03 02:01:06;;;;;;;;;;;19.20;99.90;;;;;;5073683;28;20044;-67
2022/08/03 02:03:38;;;;;;;10.35;8.07;;;19.20;99.90;;;;;;5075611;28;19924;-68
2022/08/03 02:06:30;;;;;;;11.23;7.20;;;19.10;99.90;;;;;;5062991;28;20059;-68
2022/08/03 02:09:21;;;;;;;13.60;7.72;;;19.00;99.90;;;;;;5056662;28;20048;-68
2022/08/03 02:11:52;;;;;;;10.37;7.73;;;19.00;99.90;;;;;;5059665;28;20564;-67
2022/08/03 02:14:24;;;;;;;11.95;7.50;;;19.00;99.90;;;;;;5061398;28;20051;-68
2022/08/03 02:16:55;;;;;;;9.05;6.97;;;19.00;99.90;;;;;;5061339;28;20092;-68
2022/08/03 02:19:25;;;;;;;9.45;7.50;;;18.90;99.90;;;;;;5071183;28;20086;-68
2022/08/03 02:21:53;;;;;;;12.00;7.55;;;18.90;99.90;;;;;;5067167;28;20037;-67
2022/08/03 02:24:29;;;;;;;9.43;7.15;;;18.90;99.90;;;;;;5080580;28;20075;-67
2022/08/03 02:26:59;;;;;;;9.88;7.28;;;18.90;99.90;;;;;;5077342;28;20560;-67
2022/08/03 02:29:32;;;;;;;8.07;7.28;;;18.80;99.90;;;;;;5067324;28;20067;-67
2022/08/03 02:32:11;;;;;;;9.70;7.03;;;18.80;99.90;;;;;;5069959;28;20049;-68
2022/08/03 02:34:46;;;;;;;10.00;7.30;;;18.80;99.90;;;;;;5070776;28;20076;-68
2022/08/03 02:37:18;;;;;;;9.73;7.40;;;18.70;99.90;;;;;;5093968;28;20482;-66
2022/08/03 02:39:50;;;;;;;9.32;7.22;;;18.70;99.90;;;;;;5083615;28;20033;-67
2022/08/03 02:42:22;;;;;;;10.35;7.10;;;18.60;99.90;;;;;;5094333;28;20087;-66
2022/08/03 02:44:54;;;;;;;12.23;6.82;;;18.60;99.90;;;;;;5087639;28;20045;-67
2022/08/03 02:47:24;;;;;;;8.80;7.20;;;18.60;99.90;;;;;;5089008;28;20127;-67
2022/08/03 02:49:58;;;;;;;7.97;7.15;;;18.60;99.90;;;;;;5064207;28;20579;-67
2022/08/03 02:52:31;;;;;;;10.35;6.95;;;18.60;99.90;;;;;;5082295;28;20045;-67
2022/08/03 02:55:01;;;;;;;9.85;7.43;;;18.50;99.90;;;;;;5076998;28;20043;-67
2022/08/03 02:57:32;;;;;;;11.57;7.18;;;18.40;99.90;;;;;;5065715;28;20045;-67
2022/08/03 03:00:04;;;;;;;8.95;7.15;;;18.40;99.90;;;;;;5055948;28;20080;-67
2022/08/03 03:02:35;;;;;;;7.78;6.93;;;18.30;99.90;;;;;;5070658;28;20056;-68
2022/08/03 03:05:04;;;;;;;9.27;7.18;;;18.30;99.90;;;;;;5068207;28;20098;-68
2022/08/03 03:07:54;;;;;;;10.77;6.95;;;18.30;99.90;;;;;;5075077;28;20123;-69
2022/08/03 03:10:25;;;;;;;13.02;7.20;;;18.30;99.90;;;;;;5058285;28;20144;-68
2022/08/03 03:12:58;;;;;;;8.85;6.63;;;18.20;99.90;;;;;;5080423;28;20489;-69
2022/08/03 03:15:38;;;;;;;9.68;6.68;;;18.20;99.90;;;;;;5067697;28;20136;-68
2022/08/03 03:18:08;;;;;;;9.38;6.95;;;18.20;99.90;;;;;;5065654;28;20066;-68
2022/08/03 03:20:39;;;;;;;9.32;6.82;;;18.20;99.90;;;;;;5082942;28;20040;-67
2022/08/03 03:23:08;;;;;;;7.50;6.70;;;18.10;99.90;;;;;;5092244;28;20040;-68
2022/08/03 03:25:37;;;;;;;7.32;6.07;;;18.10;99.90;;;;;;5084258;28;20068;-67
2022/08/03 03:28:09;;;;;;;8.07;6.65;;;18.10;99.90;;;;;;5083847;28;20049;-67
2022/08/03 03:30:37;;;;;;;9.52;6.05;;;18.10;99.90;;;;;;5074189;28;20426;-67
2022/08/03 03:33:06;;;;;;;8.55;6.68;;;18.10;99.90;;;;;;5070015;28;20362;-67
2022/08/03 03:35:36;;;;;;;7.78;6.97;;;18.10;99.90;;;;;;5070564;28;20112;-67
2022/08/03 03:38:06;;;;;;;;;;;18.10;99.90;;;;;;5077759;28;20037;-67
2022/08/03 03:40:36;;;;;;;8.85;6.82;;;18.00;99.90;;;;;;5089834;28;19924;-67
2022/08/03 03:43:12;;;;;;;9.07;6.53;;;18.00;99.90;;;;;;5073969;28;20484;-68
2022/08/03 03:45:42;;;;;;;8.50;6.78;;;18.00;99.90;;;;;;5087327;28;20074;-68
2022/08/03 03:48:10;;;;;;;9.60;7.07;;;18.00;99.90;;;;;;5081346;28;20101;-68
2022/08/03 03:50:41;;;;;;;8.85;6.82;;;18.00;99.90;;;;;;5081371;28;20100;-67
2022/08/03 03:53:12;;;;;;;9.70;6.93;;;18.00;99.90;;;;;;5075130;28;20099;-68
2022/08/03 03:55:45;;;;;;;14.02;7.38;;;18.00;99.90;;;;;;5064173;28;20503;-69
2022/08/03 03:58:33;;;;;;;10.27;7.03;;;18.00;99.90;;;;;;5067306;28;20048;-69
2022/08/03 04:01:00;;;;;;;9.35;7.13;;;18.00;99.90;;;;;;5077597;28;20033;-68
2022/08/03 04:03:28;;;;;;;11.27;6.78;;;18.00;99.90;;;;;;5060768;28;20041;-68
2022/08/03 04:11:48;;;;;;;8.93;7.13;;;18.10;99.90;;;;;;5073459;28;20058;-64
2022/08/03 04:14:24;;;;;;;8.98;7.60;;;18.10;99.90;;;;;;5090972;28;20379;-64
2022/08/03 04:17:01;;;;;;;10.23;7.90;;;18.20;99.90;;;;;;5080497;28;20445;-63
2022/08/03 04:19:47;;;;;;;11.23;7.90;;;18.20;99.90;;;;;;5073797;28;20037;-65
2022/08/03 04:22:27;;;;;;;12.30;8.50;;;18.30;99.90;;;;;;5059313;28;20261;-63
2022/08/03 04:25:04;;;;;;;11.13;8.52;;;18.30;99.90;;;;;;5058383;28;20063;-63
2022/08/03 04:27:38;;;;;;;10.07;7.97;;;18.30;99.90;;;;;;5077836;28;20050;-66
2022/08/03 04:30:09;;;;;;;12.88;8.63;;;18.40;99.90;;;;;;5073592;28;20071;-67
2022/08/03 04:32:38;;;;;;;11.13;8.20;;;18.40;99.90;;;;;;5073380;28;20049;-63
2022/08/03 04:35:12;;;;;;;11.32;8.38;;;18.50;99.90;;;;;;5068797;28;20071;-63
2022/08/03 04:37:50;;;;;;;12.60;8.52;;;18.50;99.90;;;;;;5070140;28;20041;-64
2022/08/03 04:40:25;;;;;;;11.65;8.30;;;18.60;99.90;;;;;;5070629;28;20043;-62
2022/08/03 04:42:58;;;;;;;14.88;8.52;;;18.70;99.90;;;;;;5070825;28;20048;-64
2022/08/03 04:45:29;;;;;;;10.13;8.35;;;18.80;99.90;;;;;;5074659;28;20570;-63
2022/08/03 04:47:59;;;;;;;15.38;8.45;;;18.90;99.90;;;;;;5081197;28;20055;-64
2022/08/03 04:50:30;;;;;;;10.15;8.35;;;19.00;99.90;;;;;;5081722;28;20041;-62
2022/08/03 04:53:05;;;;;;;12.10;8.10;;;19.10;99.90;;;;;;5063342;28;20044;-64
2022/08/03 04:55:35;;;;;;;11.48;8.38;;;19.20;99.90;;;;;;5071292;28;20052;-64
2022/08/03 04:58:05;;;;;;;10.15;7.65;;;19.30;99.90;;;;;;5059445;28;20064;-63
2022/08/03 05:00:32;;;;;;;9.80;7.88;;;19.40;99.90;;;;;;5077271;28;20040;-64
2022/08/03 05:03:00;;;;;;;9.10;7.97;;;19.50;99.90;;;;;;5077486;28;20044;-64
2022/08/03 05:05:28;;;;;;;12.65;8.48;;;19.50;99.90;;;;;;5056756;28;20039;-67
2022/08/03 05:08:16;;;;;;;13.90;8.52;;;19.60;99.90;;;;;;5068877;28;20128;-64
2022/08/03 05:10:54;;;;;;;8.70;7.80;;;19.70;99.90;;;;;;5058135;28;20494;-64
2022/08/03 05:13:25;;;;;;;13.90;8.23;;;19.80;99.90;;;;;;5072935;28;20048;-64
2022/08/03 05:15:53;;;;;;;10.70;8.00;;;19.80;99.90;;;;;;5077706;28;20494;-66
2022/08/03 05:18:20;;;;;;;13.23;8.85;;;19.90;99.90;;;;;;5072840;28;20478;-66
2022/08/03 05:20:47;;;;;;;14.60;8.60;;;20.00;99.90;;;;;;5074772;28;20039;-63
2022/08/03 05:23:15;;;;;;;13.45;9.00;;;20.00;99.90;;;;;;5057843;28;20533;-65
2022/08/03 05:25:42;;;;;;;19.42;8.75;;;20.10;99.90;;;;;;5064400;28;20036;-63
2022/08/03 05:28:16;;;;;;;23.25;9.18;;;20.10;99.90;;;;;;5061675;28;20521;-63
2022/08/03 05:30:43;;;;;;;13.68;8.70;;;20.20;99.90;;;;;;5075218;28;20055;-64
2022/08/03 05:33:10;;;;;;;15.27;9.40;;;20.20;99.90;;;;;;5070741;28;20043;-62
2022/08/03 05:35:38;;;;;;;9.60;8.60;;;20.30;99.90;;;;;;5062371;28;20041;-62
2022/08/03 05:38:26;;;;;;;10.23;8.82;;;20.40;99.90;;;;;;5076962;28;20443;-63
2022/08/03 05:41:01;;;;;;;11.95;9.50;;;20.40;99.90;;;;;;5057146;28;20352;-63
2022/08/03 05:43:49;;;;;;;10.45;9.10;;;20.50;99.90;;;;;;5063400;28;20086;-62
2022/08/03 05:46:17;;;;;;;13.90;9.93;;;20.60;99.90;;;;;;5064512;28;20431;-62
2022/08/03 05:48:44;;;;;;;12.25;9.27;;;20.60;99.90;;;;;;5066524;28;20048;-63
2022/08/03 05:51:12;;;;;;;13.82;10.63;;;20.70;99.90;;;;;;5065656;28;20045;-62
2022/08/03 05:53:41;;;;;;;12.98;10.38;;;20.80;99.90;;;;;;5074620;28;20502;-62
2022/08/03 05:56:09;;;;;;;14.48;9.65;;;20.90;99.90;;;;;;5067960;28;20094;-63
2022/08/03 05:58:47;;;;;;;14.40;10.40;;;21.00;99.90;;;;;;5061462;28;20439;-66
2022/08/03 06:01:15;;;;;;;10.85;9.68;;;21.00;99.90;;;;;;5070409;28;20036;-65
2022/08/03 06:03:44;;;;;;;10.82;8.88;;;21.00;99.90;;;;;;5073475;28;20067;-63
2022/08/03 06:06:12;;;;;;;9.98;9.02;;;21.10;99.90;;;;;;5076242;28;20547;-64
2022/08/03 06:08:41;;;;;;;10.77;9.65;;;21.20;99.90;;;;;;5071920;28;20056;-63
2022/08/03 06:11:08;;;;;;;9.40;8.40;;;21.30;99.90;;;;;;5080668;28;20040;-63
2022/08/03 06:13:36;;;;;;;11.90;9.73;;;21.40;99.90;;;;;;5071775;28;20146;-63
2022/08/03 06:16:04;;;;;;;11.93;9.18;;;21.50;99.90;;;;;;5086984;28;20530;-63
2022/08/03 06:18:32;;;;;;;10.48;9.40;;;21.60;99.90;;;;;;5074206;28;20527;-63
2022/08/03 06:21:03;;;;;;;13.02;9.68;;;21.60;99.90;;;;;;5065985;28;20093;-63
2022/08/03 06:23:43;;;;;;;12.80;9.82;;;21.70;99.90;;;;;;5072223;28;20049;-63
2022/08/03 06:26:23;;;;;;;10.30;9.05;;;21.70;99.90;;;;;;5067752;28;20425;-63
2022/08/03 06:28:51;;;;;;;14.25;9.13;;;21.70;99.90;;;;;;5065924;28;20048;-63
2022/08/03 06:31:24;;;;;;;13.15;10.02;;;21.90;99.90;;;;;;5079901;28;20435;-62
2022/08/03 06:34:07;;;;;;;11.68;9.32;;;21.90;99.90;;;;;;5078395;28;20518;-62
2022/08/03 06:36:59;;;;;;;11.43;8.75;;;22.00;99.90;;;;;;5078747;28;20035;-62
2022/08/03 06:39:29;;;;;;;12.55;9.57;;;22.20;99.90;;;;;;5073544;28;20044;-65
2022/08/03 06:41:56;;;;;;;11.93;9.40;;;22.20;99.90;;;;;;5078330;28;20060;-64
2022/08/03 06:44:24;;;;;;;12.45;8.85;;;22.30;99.90;;;;;;5072668;28;20045;-62
2022/08/03 06:46:57;;;;;;;13.52;9.10;;;22.40;99.90;;;;;;5085229;28;20068;-62
2022/08/03 06:49:26;;;;;;;13.02;8.63;;;22.50;99.90;;;;;;5074390;28;20586;-63
2022/08/03 06:51:56;;;;;;;11.23;8.48;;;22.50;99.90;;;;;;5069740;28;20044;-64
2022/08/03 06:54:36;;;;;;;9.93;8.25;;;22.60;99.90;;;;;;5077069;28;20044;-63
2022/08/03 06:57:06;;;;;;;12.00;8.00;;;22.70;99.90;;;;;;5090912;28;20726;-67
2022/08/03 06:59:36;;;;;;;9.40;8.25;;;22.80;99.90;;;;;;5094028;28;20408;-63
2022/08/03 07:02:25;;;;;;;11.32;8.02;;;22.90;99.90;;;;;;5062345;28;20121;-63
2022/08/03 07:04:55;;;;;;;9.73;8.70;;;23.00;99.90;;;;;;5062145;28;20072;-63
2022/08/03 07:07:23;;;;;;;10.70;8.82;;;23.10;99.90;;;;;;5086115;28;20553;-65
2022/08/03 07:09:52;;;;;;;9.93;8.05;;;23.20;99.90;;;;;;5062968;28;20068;-63
2022/08/03 07:12:26;;;;;;;11.02;7.75;;;23.20;99.90;;;;;;5074569;28;20094;-63
2022/08/03 07:14:56;;;;;;;11.70;8.20;;;23.40;99.90;;;;;;5062360;28;20590;-64
2022/08/03 07:17:31;;;;;;;12.00;8.13;;;23.50;99.90;;;;;;5076852;28;20042;-63
2022/08/03 07:20:05;;;;;;;9.68;8.45;;;23.60;99.90;;;;;;5075179;28;20048;-63
2022/08/03 07:22:34;;;;;;;10.95;7.90;;;23.70;99.90;;;;;;5057867;28;20786;-62
2022/08/03 07:25:02;;;;;;;8.57;7.30;;;23.70;99.90;;;;;;5067358;28;20041;-64
2022/08/03 07:27:35;;;;;;;12.05;8.43;;;23.90;99.90;;;;;;5074642;28;20040;-62
2022/08/03 07:30:07;;;;;;;10.25;7.53;;;24.00;99.90;;;;;;5084636;28;20075;-63
2022/08/03 07:32:35;;;;;;;8.43;7.30;;;24.10;99.90;;;;;;5067092;28;20052;-63
2022/08/03 07:35:18;;;;;;;10.00;7.43;;;24.20;99.90;;;;;;5068378;28;20582;-63
2022/08/03 07:37:53;;;;;;;12.35;8.02;;;24.20;99.90;;;;;;5068631;28;20411;-63
2022/08/03 07:40:21;;;;;;;8.73;7.13;;;24.30;99.90;;;;;;5066346;28;20036;-65
2022/08/03 07:42:54;;;;;;;8.38;7.53;;;24.50;99.90;;;;;;5075939;28;20045;-63
2022/08/03 07:45:23;;;;;;;8.48;7.68;;;24.50;99.90;;;;;;5071783;28;20044;-63
2022/08/03 07:47:50;;;;;;;8.45;7.45;;;24.60;99.90;;;;;;5076714;28;20072;-65
2022/08/03 07:50:20;;;;;;;8.57;7.40;;;24.80;99.90;;;;;;5074015;28;20517;-64
2022/08/03 07:52:51;;;;;;;10.73;7.40;;;24.90;99.90;;;;;;5071876;28;20064;-63
2022/08/03 07:55:24;;;;;;;7.97;7.18;;;25.00;99.90;;;;;;5076481;28;20032;-65
2022/08/03 07:58:03;;;;;;;8.15;7.32;;;25.10;99.90;;;;;;5068806;28;20045;-64
2022/08/03 08:00:32;;;;;;;7.97;7.18;;;25.20;99.90;;;;;;5067313;28;20047;-65
2022/08/03 08:03:01;;;;;;;7.68;6.97;;;25.30;99.90;;;;;;5070811;28;20518;-64
2022/08/03 08:05:32;;;;;;;9.88;6.90;;;25.40;99.90;;;;;;5059069;28;20101;-63
2022/08/03 08:08:00;;;;;;;9.05;7.40;;;25.50;99.90;;;;;;5071885;28;20093;-63
2022/08/03 08:10:29;;;;;;;10.30;7.13;;;25.60;99.90;;;;;;5046792;28;20045;-64
2022/08/03 08:12:57;;;;;;;9.43;7.47;;;25.70;99.90;;;;;;5077245;28;20054;-65
2022/08/03 08:15:25;;;;;;;7.78;6.90;;;25.80;99.90;;;;;;5072687;28;20053;-64
2022/08/03 08:17:56;;;;;;;8.60;7.10;;;26.00;99.90;;;;;;5079256;28;20044;-63
2022/08/03 08:20:32;;;;;;;6.95;6.32;;;26.10;99.90;;;;;;5077595;28;20040;-63
2022/08/03 08:23:04;;;;;;;8.32;7.18;;;26.20;99.90;;;;;;5081987;28;20036;-66
2022/08/03 08:25:52;;;;;;;8.93;6.80;;;26.30;99.90;;;;;;5086280;28;20047;-63
2022/08/03 08:28:21;;;;;;;10.57;7.95;;;26.40;99.90;;;;;;5087537;28;20105;-65
2022/08/03 08:31:00;;;;;;;9.43;6.85;;;26.50;99.90;;;;;;5084741;28;20097;-64
2022/08/03 08:33:28;;;;;;;8.18;7.35;;;26.60;99.90;;;;;;5074196;28;20113;-66
2022/08/03 08:36:17;;;;;;;10.32;6.28;;;26.70;99.90;;;;;;5078415;28;20037;-65
2022/08/03 08:38:45;;;;;;;9.80;6.70;;;26.90;99.90;;;;;;5085399;28;20047;-64
2022/08/03 08:41:14;;;;;;;9.27;6.90;;;27.00;99.90;;;;;;5082014;28;20395;-64
2022/08/03 08:43:42;;;;;;;8.27;6.57;;;27.10;99.90;;;;;;5087482;28;20040;-62
2022/08/03 08:46:12;;;;;;;8.55;6.70;;;27.30;99.90;;;;;;5088821;28;20055;-64
2022/08/03 08:48:52;;;;;;;6.65;6.03;;;27.30;99.90;;;;;;5075884;28;20752;-64
2022/08/03 08:51:26;;;;;;;7.95;6.95;;;27.50;99.90;;;;;;5061890;28;20483;-64
2022/08/03 08:54:17;;;;;;;11.02;7.30;;;27.70;99.90;;;;;;5068696;28;20632;-63
2022/08/03 08:56:52;;;;;;;8.75;6.82;;;27.70;99.90;;;;;;5070821;28;20052;-64
2022/08/03 08:59:20;;;;;;;10.60;6.95;;;27.70;99.90;;;;;;5071521;28;20410;-64
2022/08/03 09:01:48;;;;;;;7.60;6.40;;;27.90;99.90;;;;;;5073511;28;20048;-63
2022/08/03 09:04:16;;;;;;;7.95;7.20;;;28.00;99.90;;;;;;5065869;28;20041;-64
2022/08/03 09:06:44;;;;;;;8.13;6.88;;;28.20;99.90;;;;;;5066431;28;20044;-65
2022/08/03 09:09:33;;;;;;;8.18;7.07;;;28.30;99.90;;;;;;5079949;28;20052;-64
2022/08/03 09:12:22;;;;;;;11.45;6.72;;;28.30;99.90;;;;;;5091865;28;20035;-63
2022/08/03 09:15:30;;;;;;;7.85;6.22;;;28.40;99.90;;;;;;5094866;28;20040;-64
2022/08/03 09:18:00;;;;;;;11.38;6.80;;;28.40;99.90;;;;;;5051717;28;20588;-65
2022/08/03 09:20:30;;;;;;;6.78;6.13;;;28.50;99.90;;;;;;5073111;28;20491;-64
2022/08/03 09:23:07;;;;;;;10.57;7.28;;;28.50;99.90;;;;;;5082905;28;20052;-64
2022/08/03 09:25:57;;;;;;;7.72;5.97;;;28.70;99.90;;;;;;5074604;28;20533;-64
2022/08/03 09:28:34;;;;;;;8.23;7.10;;;28.90;99.90;;;;;;5083184;28;20072;-64
2022/08/03 09:31:32;;;;;;;9.60;6.38;;;29.10;99.90;;;;;;5089271;28;20505;-62
2022/08/03 09:34:03;;;;;;;8.57;5.93;;;29.20;99.90;;;;;;5064056;28;20769;-63
2022/08/03 09:36:36;;;;;;;10.38;6.45;;;29.20;99.90;;;;;;5070866;28;20499;-63
2022/08/03 09:39:09;;;;;;;7.53;6.07;;;29.40;99.90;;;;;;5062494;28;20065;-62
2022/08/03 09:41:39;;;;;;;8.13;6.55;;;29.70;99.90;;;;;;5069502;28;20056;-62
2022/08/03 09:44:08;;;;;;;10.43;7.07;;;29.90;99.90;;;;;;5062974;28;20101;-62
2022/08/03 09:46:55;;;;;;;6.63;5.80;;;30.00;99.90;;;;;;5080101;28;20055;-65
2022/08/03 09:49:24;;;;;;;8.85;5.85;;;30.20;99.90;;;;;;5089079;28;20047;-63
2022/08/03 09:51:52;;;;;;;10.30;7.15;;;30.50;99.90;;;;;;5089577;28;20372;-64
2022/08/03 09:54:41;;;;;;;7.07;6.38;;;30.60;99.90;;;;;;5076864;28;20483;-62
2022/08/03 09:57:20;;;;;;;6.93;6.32;;;30.40;99.60;;;;;;5060865;28;20513;-63
2022/08/03 09:59:49;;;;;;;9.38;6.68;;;30.50;99.50;;;;;;5073923;28;20052;-64
2022/08/03 10:02:24;;;;;;;7.17;6.57;;;30.50;99.20;;;;;;5057851;28;20452;-64
2022/08/03 10:04:53;;;;;;;7.53;6.75;;;30.70;99.00;;;;;;5063925;28;20386;-62
2022/08/03 10:07:22;;;;;;;7.50;6.85;;;31.00;98.30;;;;;;5069288;28;20052;-63
2022/08/03 10:10:09;;;;;;;7.00;6.30;;;31.10;97.80;;;;;;5068781;28;20512;-63
2022/08/03 10:12:56;;;;;;;8.15;7.25;;;31.10;97.70;;;;;;5073047;28;20055;-63
2022/08/03 10:15:24;;;;;;;8.43;7.53;;;31.20;97.00;;;;;;5082326;28;20068;-64
2022/08/03 10:18:12;;;;;;;8.25;6.57;;;31.30;96.80;;;;;;5083857;28;20404;-63
2022/08/03 10:20:45;;;;;;;7.93;6.75;;;31.40;96.60;;;;;;5082730;28;20041;-63
2022/08/03 10:23:15;;;;;;;6.93;6.18;;;31.60;96.00;;;;;;5087968;28;20036;-63
2022/08/03 10:25:51;;;;;;;6.20;5.60;;;31.70;95.40;;;;;;5081619;28;20349;-67
2022/08/03 10:28:20;;;;;;;6.55;5.97;;;31.50;93.60;;;;;;5088001;28;20059;-63
2022/08/03 10:30:52;;;;;;;6.28;5.78;;;31.20;93.40;;;;;;5090997;28;20397;-62
2022/08/03 10:33:20;;;;;;;;;;;31.30;93.10;;;;;;5074092;28;20124;-64
2022/08/03 10:36:09;;;;;;;9.63;5.97;;;31.50;92.70;;;;;;5067920;28;20293;-64
2022/08/03 10:38:46;;;;;;;8.23;5.95;;;31.40;92.70;;;;;;5064974;28;20127;-64
2022/08/03 10:41:15;;;;;;;6.38;5.75;;;31.70;92.20;;;;;;5088960;28;20543;-65
2022/08/03 10:43:55;;;;;;;8.63;5.78;;;32.10;91.50;;;;;;5071434;28;20050;-63
2022/08/03 10:46:25;;;;;;;6.53;5.90;;;32.30;90.70;;;;;;5059454;28;20045;-65
2022/08/03 10:48:53;;;;;;;6.65;6.00;;;32.60;89.90;;;;;;5074609;28;20059;-64
2022/08/03 10:51:22;;;;;;;7.40;5.68;;;32.90;88.40;;;;;;5062912;28;20429;-63
2022/08/03 10:53:49;;;;;;;6.43;5.90;;;33.20;87.10;;;;;;5073009;28;20074;-62
2022/08/03 10:59:49;;;;;;;6.30;5.70;;;33.60;85.60;;;;;;5067072;28;20040;-64
2022/08/03 11:02:17;;;;;;;8.23;6.45;;;33.60;83.50;;;;;;5066486;28;20047;-65
2022/08/03 11:04:44;;;;;;;6.53;5.93;;;33.70;83.40;;;;;;5064176;28;20072;-64
2022/08/03 11:07:21;;;;;;;5.60;5.20;;;33.80;82.10;;;;;;5084900;28;20079;-64
2022/08/03 11:09:54;;;;;;;6.40;5.80;;;33.70;80.40;;;;;;5079311;28;20407;-64
2022/08/03 11:12:28;;;;;;;8.73;6.07;;;33.80;79.80;;;;;;5068434;28;20483;-63
2022/08/03 11:15:01;;;;;;;6.30;5.80;;;33.70;79.80;;;;;;5064418;28;20055;-64
2022/08/03 11:17:32;;;;;;;6.53;6.03;;;33.30;79.30;;;;;;5067546;28;20713;-65
2022/08/03 11:20:13;;;;;;;7.95;5.60;;;33.70;79.50;;;;;;5073304;28;20139;-66
2022/08/03 11:22:49;;;;;;;6.03;5.43;;;33.80;77.00;;;;;;5086905;28;20044;-63
2022/08/03 11:25:18;;;;;;;6.03;5.43;;;33.80;77.20;;;;;;5082163;28;20131;-63
2022/08/03 11:28:25;;;;;;;5.95;5.40;;;34.10;76.00;;;;;;5069423;28;20591;-63
2022/08/03 11:30:54;;;;;;;6.22;5.30;;;34.00;74.20;;;;;;5088160;28;20072;-63
2022/08/03 11:33:30;;;;;;;6.35;5.68;;;33.80;73.10;;;;;;5067741;28;20051;-63
2022/08/03 11:36:00;;;;;;;6.30;5.70;;;34.00;73.30;;;;;;5065411;28;20043;-63
2022/08/03 11:38:28;;;;;;;5.73;5.23;;;34.50;73.00;;;;;;5076295;28;20036;-63
2022/08/03 11:41:01;;;;;;;7.40;5.35;;;35.00;70.80;;;;;;5066415;28;20041;-63
2022/08/03 11:43:29;;;;;;;6.03;5.43;;;35.00;69.70;;;;;;5081202;28;20032;-63
2022/08/03 11:46:07;;;;;;;6.35;5.75;;;35.10;69.80;;;;;;5087779;28;20463;-63
2022/08/03 11:48:42;;;;;;;9.85;5.55;;;35.20;68.30;;;;;;5080350;28;20063;-64
2022/08/03 11:51:27;;;;;;;6.60;5.25;;;35.00;67.60;;;;;;5087550;28;20097;-65
2022/08/03 11:53:56;;;;;;;7.80;5.68;;;35.00;67.90;;;;;;5071055;28;20049;-63
2022/08/03 11:56:25;;;;;;;6.05;5.40;;;35.10;67.90;;;;;;5062616;28;20172;-63
2022/08/03 11:58:57;;;;;;;8.02;4.80;;;34.70;68.00;;;;;;5081041;28;20558;-63
2022/08/03 12:01:45;;;;;;;5.25;4.85;;;35.10;66.50;;;;;;5084396;28;20063;-65
2022/08/03 12:04:15;;;;;;;5.22;4.70;;;35.10;64.70;;;;;;5075194;28;20033;-63
2022/08/03 12:07:00;;;;;;;5.65;5.15;;;35.10;64.60;;;;;;5074986;28;20051;-64
2022/08/03 12:09:28;;;;;;;5.90;5.32;;;36.00;64.20;;;;;;5076696;28;20093;-63
2022/08/03 12:11:55;;;;;;;5.78;5.10;;;36.20;64.00;;;;;;5070523;28;20048;-64
2022/08/03 12:14:31;;;;;;;6.20;5.47;;;36.80;64.00;;;;;;5056822;28;20045;-64
2022/08/03 12:17:17;;;;;;;6.15;5.57;;;37.20;62.90;;;;;;5075910;28;20111;-64
2022/08/03 12:19:46;;;;;;;5.93;5.43;;;37.90;61.30;;;;;;5079743;28;20573;-64
2022/08/03 12:22:15;;;;;;;6.57;5.70;;;37.60;61.10;;;;;;5065223;28;20093;-63
2022/08/03 12:24:44;;;;;;;6.75;5.35;;;37.80;60.80;;;;;;5083671;28;20040;-64
2022/08/03 12:27:25;;;;;;;5.57;5.07;;;37.50;61.00;;;;;;5074394;28;20541;-65
2022/08/03 12:29:57;;;;;;;6.07;5.57;;;37.50;61.00;;;;;;5066264;28;20044;-64
2022/08/03 12:32:29;;;;;;;5.80;5.20;;;37.90;60.10;;;;;;5077924;28;20055;-65
2022/08/03 12:34:59;;;;;;;5.90;5.40;;;38.60;59.60;;;;;;5068784;28;20074;-63
2022/08/03 12:37:31;;;;;;;5.93;5.43;;;38.80;59.20;;;;;;5072116;28;20116;-63
2022/08/03 12:40:02;;;;;;;5.70;5.07;;;38.70;59.00;;;;;;5080402;28;20055;-64
2022/08/03 12:42:38;;;;;;;5.93;5.32;;;38.90;58.20;;;;;;5080046;28;20127;-64
2022/08/03 12:45:22;;;;;;;5.50;5.00;;;39.10;58.20;;;;;;5080500;28;20410;-64
2022/08/03 12:47:57;;;;;;;5.63;5.13;;;39.60;58.00;;;;;;5086312;28;20047;-62
2022/08/03 12:50:26;;;;;;;5.93;5.40;;;39.70;57.40;;;;;;5085809;28;20407;-64
2022/08/03 12:52:54;;;;;;;7.70;4.82;;;39.70;56.90;;;;;;5074969;28;20055;-63
2022/08/03 12:55:23;;;;;;;5.93;5.35;;;40.40;56.60;;;;;;5056204;28;20548;-67
2022/08/03 12:57:50;;;;;;;7.88;5.20;;;40.50;55.80;;;;;;5069315;28;20052;-63
2022/08/03 13:00:19;;;;;;;5.55;5.10;;;41.10;55.50;;;;;;5071671;28;20053;-64
2022/08/03 13:03:00;;;;;;;5.50;5.00;;;41.50;55.00;;;;;;5071877;28;20049;-64
2022/08/03 13:05:47;;;;;;;9.80;8.02;;;41.70;54.20;;;;;;5055039;28;20051;-64
2022/08/03 13:08:23;;;;;;;5.70;5.10;;;41.80;53.50;;;;;;5066007;28;20069;-66
2022/08/03 13:10:51;;;;;;;6.07;4.72;;;42.20;53.20;;;;;;5082418;28;20482;-63
2022/08/03 13:13:37;;;;;;;8.32;5.45;;;42.40;52.80;;;;;;5075950;28;20499;-63
2022/08/03 13:16:04;;;;;;;8.25;5.30;;;42.80;51.80;;;;;;5057289;28;20080;-66
2022/08/03 13:18:32;;;;;;;6.00;4.55;;;43.00;51.20;;;;;;5065091;28;20033;-65
2022/08/03 13:21:00;;;;;;;7.60;5.10;;;43.50;50.60;;;;;;5075921;28;20040;-64
2022/08/03 13:23:29;;;;;;;5.47;5.00;;;43.20;50.30;;;;;;5079253;28;20040;-63
2022/08/03 13:25:56;;;;;;;6.13;4.78;;;43.00;49.70;;;;;;5080852;28;20520;-63